sensor_id;sensor_type;location;lat;lon;timestamp;temperature;humidity
47336;DHT22;33068;51.990;5.926;2023-12-22T00:00:39;6.30;99.90
47336;DHT22;33068;51.990;5.926;2023-12-22T00:03:06;6.30;99.90
47336;DHT22;33068;51.990;5.926;2023-12-22T00:05:33;6.40;99.90
47336;DHT22;33068;51.990;5.926;2023-12-22T00:08:00;6.30;99.90
47336;DHT22;33068;51.990;5.926;2023-12-22T00:10:28;6.30;99.90
47336;DHT22;33068;51.990;5.926;2023-12-22T00:12:57;6.40;99.90
47336;DHT22;33068;51.990;5.926;2023-12-22T00:15:25;6.40;99.90
47336;DHT22;33068;51.990;5.926;2023-12-22T00:17:52;6.40;99.90
47336;DHT22;33068;51.990;5.926;2023-12-22T00:20:19;6.30;99.90
47336;DHT22;33068;51.990;5.926;2023-12-22T00:22:46;6.40;99.90
47336;DHT22;33068;51.990;5.926;2023-12-22T00:25:13;6.40;99.90
47336;DHT22;33068;51.990;5.926;2023-12-22T00:27:40;6.40;99.90
47336;DHT22;33068;51.990;5.926;2023-12-22T00:30:08;6.50;99.90
47336;DHT22;33068;51.990;5.926;2023-12-22T00:32:37;6.50;99.90
47336;DHT22;33068;51.990;5.926;2023-12-22T00:35:05;6.40;99.90
47336;DHT22;33068;51.990;5.926;2023-12-22T00:37:32;6.40;99.90
47336;DHT22;33068;51.990;5.926;2023-12-22T00:39:59;6.30;99.90
47336;DHT22;33068;51.990;5.926;2023-12-22T00:42:26;6.30;99.90
47336;DHT22;33068;51.990;5.926;2023-12-22T00:44:53;6.10;99.90
47336;DHT22;33068;51.990;5.926;2023-12-22T00:47:20;6.10;99.90
47336;DHT22;33068;51.990;5.926;2023-12-22T00:49:49;6.10;99.90
47336;DHT22;33068;51.990;5.926;2023-12-22T00:52:16;6.10;99.90
47336;DHT22;33068;51.990;5.926;2023-12-22T00:54:43;6.00;99.90
47336;DHT22;33068;51.990;5.926;2023-12-22T00:57:10;6.00;99.90
47336;DHT22;33068;51.990;5.926;2023-12-22T00:59:39;6.10;99.90
47336;DHT22;33068;51.990;5.926;2023-12-22T01:02:08;6.00;99.90
47336;DHT22;33068;51.990;5.926;2023-12-22T01:04:35;6.00;99.90
47336;DHT22;33068;51.990;5.926;2023-12-22T01:07:03;6.00;99.90
47336;DHT22;33068;51.990;5.926;2023-12-22T01:09:31;6.00;99.90
47336;DHT22;33068;51.990;5.926;2023-12-22T01:11:58;5.90;99.90
47336;DHT22;33068;51.990;5.926;2023-12-22T01:14:28;5.90;99.90
47336;DHT22;33068;51.990;5.926;2023-12-22T01:16:55;5.90;99.90
47336;DHT22;33068;51.990;5.926;2023-12-22T01:19:24;5.90;99.90
47336;DHT22;33068;51.990;5.926;2023-12-22T01:21:52;5.80;99.90
47336;DHT22;33068;51.990;5.926;2023-12-22T01:24:20;5.80;99.90
47336;DHT22;33068;51.990;5.926;2023-12-22T01:26:47;5.80;99.90
47336;DHT22;33068;51.990;5.926;2023-12-22T01:29:14;5.80;99.90
47336;DHT22;33068;51.990;5.926;2023-12-22T01:31:41;5.80;99.90
47336;DHT22;33068;51.990;5.926;2023-12-22T01:34:08;5.80;99.90
47336;DHT22;33068;51.990;5.926;2023-12-22T01:36:36;5.80;99.90
47336;DHT22;33068;51.990;5.926;2023-12-22T01:39:03;5.80;99.90
47336;DHT22;33068;51.990;5.926;2023-12-22T01:41:31;5.80;99.90
47336;DHT22;33068;51.990;5.926;2023-12-22T01:43:58;5.80;99.90
47336;DHT22;33068;51.990;5.926;2023-12-22T01:46:25;5.80;99.90
47336;DHT22;33068;51.990;5.926;2023-12-22T01:48:54;5.90;99.90
47336;DHT22;33068;51.990;5.926;2023-12-22T01:51:21;5.90;99.90
47336;DHT22;33068;51.990;5.926;2023-12-22T01:53:48;5.90;99.90
47336;DHT22;33068;51.990;5.926;2023-12-22T01:56:15;5.80;99.90
47336;DHT22;33068;51.990;5.926;2023-12-22T01:58:44;5.80;99.90
47336;DHT22;33068;51.990;5.926;2023-12-22T02:01:18;5.80;99.90
47336;DHT22;33068;51.990;5.926;2023-12-22T02:03:46;5.80;99.90
47336;DHT22;33068;51.990;5.926;2023-12-22T02:06:16;5.70;99.90
47336;DHT22;33068;51.990;5.926;2023-12-22T02:08:46;5.80;99.90
47336;DHT22;33068;51.990;5.926;2023-12-22T02:11:13;5.80;99.90
47336;DHT22;33068;51.990;5.926;2023-12-22T02:13:40;5.90;99.90
47336;DHT22;33068;51.990;5.926;2023-12-22T02:16:16;5.90;99.90
47336;DHT22;33068;51.990;5.926;2023-12-22T02:18:47;5.90;99.90
47336;DHT22;33068;51.990;5.926;2023-12-22T02:21:16;5.80;99.90
47336;DHT22;33068;51.990;5.926;2023-12-22T02:23:47;5.80;99.90
47336;DHT22;33068;51.990;5.926;2023-12-22T02:26:22;5.80;99.90
47336;DHT22;33068;51.990;5.926;2023-12-22T02:28:52;5.80;99.90
47336;DHT22;33068;51.990;5.926;2023-12-22T02:31:28;5.80;99.90
47336;DHT22;33068;51.990;5.926;2023-12-22T02:33:59;5.90;99.90
47336;DHT22;33068;51.990;5.926;2023-12-22T02:36:27;5.70;99.90
47336;DHT22;33068;51.990;5.926;2023-12-22T02:38:58;5.80;99.90
47336;DHT22;33068;51.990;5.926;2023-12-22T02:41:26;5.80;99.90
47336;DHT22;33068;51.990;5.926;2023-12-22T02:43:53;5.80;99.90
47336;DHT22;33068;51.990;5.926;2023-12-22T02:46:21;5.90;99.90
47336;DHT22;33068;51.990;5.926;2023-12-22T02:48:48;5.90;99.90
47336;DHT22;33068;51.990;5.926;2023-12-22T02:51:15;5.90;99.90
47336;DHT22;33068;51.990;5.926;2023-12-22T02:53:42;6.00;99.90
47336;DHT22;33068;51.990;5.926;2023-12-22T02:56:11;5.90;99.90
47336;DHT22;33068;51.990;5.926;2023-12-22T02:58:38;5.90;99.90
47336;DHT22;33068;51.990;5.926;2023-12-22T03:01:05;5.90;99.90
47336;DHT22;33068;51.990;5.926;2023-12-22T03:03:32;6.00;99.90
47336;DHT22;33068;51.990;5.926;2023-12-22T03:05:59;6.00;99.90
47336;DHT22;33068;51.990;5.926;2023-12-22T03:08:26;6.00;99.90
47336;DHT22;33068;51.990;5.926;2023-12-22T03:10:53;6.00;99.90
47336;DHT22;33068;51.990;5.926;2023-12-22T03:13:22;6.00;99.90
47336;DHT22;33068;51.990;5.926;2023-12-22T03:15:49;6.00;99.90
47336;DHT22;33068;51.990;5.926;2023-12-22T03:18:16;6.00;99.90
47336;DHT22;33068;51.990;5.926;2023-12-22T03:20:43;6.10;99.90
47336;DHT22;33068;51.990;5.926;2023-12-22T03:23:10;6.20;99.90
47336;DHT22;33068;51.990;5.926;2023-12-22T03:25:37;6.20;99.90
47336;DHT22;33068;51.990;5.926;2023-12-22T03:28:05;5.80;99.90
47336;DHT22;33068;51.990;5.926;2023-12-22T03:30:35;5.50;99.90
47336;DHT22;33068;51.990;5.926;2023-12-22T03:33:04;5.30;99.90
47336;DHT22;33068;51.990;5.926;2023-12-22T03:35:32;5.10;99.90
47336;DHT22;33068;51.990;5.926;2023-12-22T03:37:59;4.90;99.90
47336;DHT22;33068;51.990;5.926;2023-12-22T03:40:26;4.70;99.90
47336;DHT22;33068;51.990;5.926;2023-12-22T03:42:53;4.70;99.90
47336;DHT22;33068;51.990;5.926;2023-12-22T03:45:21;4.60;99.90
47336;DHT22;33068;51.990;5.926;2023-12-22T03:47:50;4.60;99.90
47336;DHT22;33068;51.990;5.926;2023-12-22T03:50:26;4.60;99.90
47336;DHT22;33068;51.990;5.926;2023-12-22T03:52:53;4.60;99.90
47336;DHT22;33068;51.990;5.926;2023-12-22T03:55:20;4.50;99.90
47336;DHT22;33068;51.990;5.926;2023-12-22T03:57:47;4.60;99.90
47336;DHT22;33068;51.990;5.926;2023-12-22T04:00:15;4.60;99.90
47336;DHT22;33068;51.990;5.926;2023-12-22T04:02:43;4.60;99.90
47336;DHT22;33068;51.990;5.926;2023-12-22T04:05:12;4.70;99.90
47336;DHT22;33068;51.990;5.926;2023-12-22T04:07:40;4.70;99.90
47336;DHT22;33068;51.990;5.926;2023-12-22T04:10:07;4.80;99.90
47336;DHT22;33068;51.990;5.926;2023-12-22T04:12:35;4.80;99.90
47336;DHT22;33068;51.990;5.926;2023-12-22T04:15:02;4.80;99.90
47336;DHT22;33068;51.990;5.926;2023-12-22T04:17:30;4.80;99.90
47336;DHT22;33068;51.990;5.926;2023-12-22T04:19:57;4.90;99.90
47336;DHT22;33068;51.990;5.926;2023-12-22T04:22:25;4.90;99.90
47336;DHT22;33068;51.990;5.926;2023-12-22T04:24:52;5.00;99.90
47336;DHT22;33068;51.990;5.926;2023-12-22T04:27:19;5.00;99.90
47336;DHT22;33068;51.990;5.926;2023-12-22T04:29:46;5.10;99.90
47336;DHT22;33068;51.990;5.926;2023-12-22T04:32:14;5.20;99.90
47336;DHT22;33068;51.990;5.926;2023-12-22T04:34:41;5.20;99.90
47336;DHT22;33068;51.990;5.926;2023-12-22T04:37:08;5.20;99.90
47336;DHT22;33068;51.990;5.926;2023-12-22T04:39:37;5.30;99.90
47336;DHT22;33068;51.990;5.926;2023-12-22T04:42:04;5.40;99.90
47336;DHT22;33068;51.990;5.926;2023-12-22T04:44:31;5.50;99.90
47336;DHT22;33068;51.990;5.926;2023-12-22T04:46:58;5.50;99.90
47336;DHT22;33068;51.990;5.926;2023-12-22T04:49:25;5.60;99.90
47336;DHT22;33068;51.990;5.926;2023-12-22T04:51:52;5.70;99.90
47336;DHT22;33068;51.990;5.926;2023-12-22T04:54:19;5.70;99.90
47336;DHT22;33068;51.990;5.926;2023-12-22T04:56:48;5.80;99.90
47336;DHT22;33068;51.990;5.926;2023-12-22T04:59:15;5.80;99.90
47336;DHT22;33068;51.990;5.926;2023-12-22T05:01:42;5.80;99.90
47336;DHT22;33068;51.990;5.926;2023-12-22T05:04:11;5.80;99.90
47336;DHT22;33068;51.990;5.926;2023-12-22T05:06:38;5.80;99.90
47336;DHT22;33068;51.990;5.926;2023-12-22T05:09:05;5.80;99.90
47336;DHT22;33068;51.990;5.926;2023-12-22T05:11:32;5.80;99.90
47336;DHT22;33068;51.990;5.926;2023-12-22T05:14:01;5.90;99.90
47336;DHT22;33068;51.990;5.926;2023-12-22T05:16:28;5.80;99.90
47336;DHT22;33068;51.990;5.926;2023-12-22T05:18:56;5.90;99.90
47336;DHT22;33068;51.990;5.926;2023-12-22T05:21:24;5.80;99.90
47336;DHT22;33068;51.990;5.926;2023-12-22T05:23:51;5.80;99.90
47336;DHT22;33068;51.990;5.926;2023-12-22T05:26:18;5.80;99.90
47336;DHT22;33068;51.990;5.926;2023-12-22T05:28:46;5.80;99.90
47336;DHT22;33068;51.990;5.926;2023-12-22T05:31:14;5.80;99.90
47336;DHT22;33068;51.990;5.926;2023-12-22T05:33:41;5.80;99.90
47336;DHT22;33068;51.990;5.926;2023-12-22T05:36:08;5.80;99.90
47336;DHT22;33068;51.990;5.926;2023-12-22T05:38:37;5.70;99.90
47336;DHT22;33068;51.990;5.926;2023-12-22T05:41:05;5.70;99.90
47336;DHT22;33068;51.990;5.926;2023-12-22T05:43:32;5.60;99.90
47336;DHT22;33068;51.990;5.926;2023-12-22T05:45:59;5.70;99.90
47336;DHT22;33068;51.990;5.926;2023-12-22T05:48:28;5.60;99.90
47336;DHT22;33068;51.990;5.926;2023-12-22T05:50:56;5.60;99.90
47336;DHT22;33068;51.990;5.926;2023-12-22T05:53:23;5.70;99.90
47336;DHT22;33068;51.990;5.926;2023-12-22T05:55:50;5.70;99.90
47336;DHT22;33068;51.990;5.926;2023-12-22T05:58:17;5.70;99.90
47336;DHT22;33068;51.990;5.926;2023-12-22T06:00:44;5.70;99.90
47336;DHT22;33068;51.990;5.926;2023-12-22T06:03:11;5.60;99.90
47336;DHT22;33068;51.990;5.926;2023-12-22T06:05:41;5.70;99.90
47336;DHT22;33068;51.990;5.926;2023-12-22T06:08:08;5.70;99.90
47336;DHT22;33068;51.990;5.926;2023-12-22T06:10:36;5.90;99.90
47336;DHT22;33068;51.990;5.926;2023-12-22T06:13:03;5.80;99.90
47336;DHT22;33068;51.990;5.926;2023-12-22T06:15:31;5.90;99.90
47336;DHT22;33068;51.990;5.926;2023-12-22T06:17:58;5.90;99.90
47336;DHT22;33068;51.990;5.926;2023-12-22T06:20:25;6.00;99.90
47336;DHT22;33068;51.990;5.926;2023-12-22T06:22:54;6.00;99.90
47336;DHT22;33068;51.990;5.926;2023-12-22T06:25:21;6.00;99.90
47336;DHT22;33068;51.990;5.926;2023-12-22T06:27:48;6.00;99.90
47336;DHT22;33068;51.990;5.926;2023-12-22T06:30:15;6.00;99.90
47336;DHT22;33068;51.990;5.926;2023-12-22T06:32:43;6.10;99.90
47336;DHT22;33068;51.990;5.926;2023-12-22T06:35:10;6.10;99.90
47336;DHT22;33068;51.990;5.926;2023-12-22T06:37:37;6.20;99.90
47336;DHT22;33068;51.990;5.926;2023-12-22T06:40:07;6.30;99.90
47336;DHT22;33068;51.990;5.926;2023-12-22T06:42:34;6.40;99.90
47336;DHT22;33068;51.990;5.926;2023-12-22T06:45:01;6.60;99.90
47336;DHT22;33068;51.990;5.926;2023-12-22T06:47:28;6.60;99.90
47336;DHT22;33068;51.990;5.926;2023-12-22T06:49:55;6.70;99.90
47336;DHT22;33068;51.990;5.926;2023-12-22T06:52:22;6.80;99.90
47336;DHT22;33068;51.990;5.926;2023-12-22T06:54:49;6.90;99.90
47336;DHT22;33068;51.990;5.926;2023-12-22T06:57:18;6.90;99.90
47336;DHT22;33068;51.990;5.926;2023-12-22T06:59:46;7.00;99.90
47336;DHT22;33068;51.990;5.926;2023-12-22T07:02:15;7.10;99.90
47336;DHT22;33068;51.990;5.926;2023-12-22T07:04:42;7.20;99.90
47336;DHT22;33068;51.990;5.926;2023-12-22T07:07:29;7.20;99.90
47336;DHT22;33068;51.990;5.926;2023-12-22T07:09:56;7.30;99.90
47336;DHT22;33068;51.990;5.926;2023-12-22T07:12:25;7.40;99.90
47336;DHT22;33068;51.990;5.926;2023-12-22T07:14:52;7.50;99.90
47336;DHT22;33068;51.990;5.926;2023-12-22T07:17:19;7.50;99.90
47336;DHT22;33068;51.990;5.926;2023-12-22T07:19:47;7.50;99.90
47336;DHT22;33068;51.990;5.926;2023-12-22T07:22:17;7.60;99.90
47336;DHT22;33068;51.990;5.926;2023-12-22T07:24:44;7.60;99.90
47336;DHT22;33068;51.990;5.926;2023-12-22T07:27:12;7.70;99.90
47336;DHT22;33068;51.990;5.926;2023-12-22T07:29:41;7.50;99.90
47336;DHT22;33068;51.990;5.926;2023-12-22T07:32:08;7.60;99.90
47336;DHT22;33068;51.990;5.926;2023-12-22T07:34:35;7.70;99.90
47336;DHT22;33068;51.990;5.926;2023-12-22T07:37:03;7.70;99.90
47336;DHT22;33068;51.990;5.926;2023-12-22T07:39:30;7.70;99.90
47336;DHT22;33068;51.990;5.926;2023-12-22T07:41:57;7.70;99.90
47336;DHT22;33068;51.990;5.926;2023-12-22T07:44:24;7.80;99.90
47336;DHT22;33068;51.990;5.926;2023-12-22T07:47:00;7.80;99.90
47336;DHT22;33068;51.990;5.926;2023-12-22T07:49:39;7.90;99.90
47336;DHT22;33068;51.990;5.926;2023-12-22T07:52:09;7.90;99.90
47336;DHT22;33068;51.990;5.926;2023-12-22T07:54:37;7.90;99.90
47336;DHT22;33068;51.990;5.926;2023-12-22T07:57:04;7.90;99.90
47336;DHT22;33068;51.990;5.926;2023-12-22T07:59:31;8.00;99.90
47336;DHT22;33068;51.990;5.926;2023-12-22T08:02:00;8.00;99.90
47336;DHT22;33068;51.990;5.926;2023-12-22T08:04:27;8.00;99.90
47336;DHT22;33068;51.990;5.926;2023-12-22T08:06:54;8.00;99.90
47336;DHT22;33068;51.990;5.926;2023-12-22T08:09:21;8.10;99.90
47336;DHT22;33068;51.990;5.926;2023-12-22T08:11:49;8.20;99.90
47336;DHT22;33068;51.990;5.926;2023-12-22T08:14:18;8.10;99.90
47336;DHT22;33068;51.990;5.926;2023-12-22T08:16:45;8.10;99.90
47336;DHT22;33068;51.990;5.926;2023-12-22T08:19:14;8.10;99.90
47336;DHT22;33068;51.990;5.926;2023-12-22T08:21:43;8.20;99.90
47336;DHT22;33068;51.990;5.926;2023-12-22T08:24:10;8.10;99.90
47336;DHT22;33068;51.990;5.926;2023-12-22T08:26:37;7.90;99.90
47336;DHT22;33068;51.990;5.926;2023-12-22T08:29:06;7.90;99.90
47336;DHT22;33068;51.990;5.926;2023-12-22T08:31:39;7.80;99.90
47336;DHT22;33068;51.990;5.926;2023-12-22T08:34:23;7.70;99.90
47336;DHT22;33068;51.990;5.926;2023-12-22T08:36:52;7.60;99.90
47336;DHT22;33068;51.990;5.926;2023-12-22T08:39:27;7.50;99.90
47336;DHT22;33068;51.990;5.926;2023-12-22T08:42:03;7.50;99.90
47336;DHT22;33068;51.990;5.926;2023-12-22T08:44:33;7.50;99.90
47336;DHT22;33068;51.990;5.926;2023-12-22T08:47:00;7.60;99.90
47336;DHT22;33068;51.990;5.926;2023-12-22T08:49:29;7.60;99.90
47336;DHT22;33068;51.990;5.926;2023-12-22T08:51:56;7.50;99.90
47336;DHT22;33068;51.990;5.926;2023-12-22T08:54:25;7.50;99.90
47336;DHT22;33068;51.990;5.926;2023-12-22T08:56:53;7.50;99.90
47336;DHT22;33068;51.990;5.926;2023-12-22T08:59:20;7.50;99.90
47336;DHT22;33068;51.990;5.926;2023-12-22T09:01:48;7.60;99.90
47336;DHT22;33068;51.990;5.926;2023-12-22T09:04:15;7.60;99.90
47336;DHT22;33068;51.990;5.926;2023-12-22T09:06:44;7.80;99.90
47336;DHT22;33068;51.990;5.926;2023-12-22T09:09:11;7.70;99.90
47336;DHT22;33068;51.990;5.926;2023-12-22T09:11:38;7.90;99.90
47336;DHT22;33068;51.990;5.926;2023-12-22T09:14:05;7.90;99.90
47336;DHT22;33068;51.990;5.926;2023-12-22T09:16:35;7.90;99.90
47336;DHT22;33068;51.990;5.926;2023-12-22T09:19:03;8.00;99.90
47336;DHT22;33068;51.990;5.926;2023-12-22T09:21:30;8.00;99.90
47336;DHT22;33068;51.990;5.926;2023-12-22T09:23:59;8.00;99.90
47336;DHT22;33068;51.990;5.926;2023-12-22T09:26:26;8.10;99.90
47336;DHT22;33068;51.990;5.926;2023-12-22T09:28:54;8.10;99.90
47336;DHT22;33068;51.990;5.926;2023-12-22T09:31:22;8.20;99.90
47336;DHT22;33068;51.990;5.926;2023-12-22T09:33:49;8.20;99.90
47336;DHT22;33068;51.990;5.926;2023-12-22T09:36:16;8.20;99.90
47336;DHT22;33068;51.990;5.926;2023-12-22T09:38:43;8.30;99.90
47336;DHT22;33068;51.990;5.926;2023-12-22T09:41:12;8.30;99.90
47336;DHT22;33068;51.990;5.926;2023-12-22T09:43:40;8.50;99.90
47336;DHT22;33068;51.990;5.926;2023-12-22T09:46:10;8.40;99.90
47336;DHT22;33068;51.990;5.926;2023-12-22T09:48:40;8.50;99.90
47336;DHT22;33068;51.990;5.926;2023-12-22T09:51:08;8.60;99.90
47336;DHT22;33068;51.990;5.926;2023-12-22T09:53:38;8.50;99.90
47336;DHT22;33068;51.990;5.926;2023-12-22T09:56:07;8.60;99.90
47336;DHT22;33068;51.990;5.926;2023-12-22T09:58:36;8.60;99.90
47336;DHT22;33068;51.990;5.926;2023-12-22T10:01:05;8.60;99.90
47336;DHT22;33068;51.990;5.926;2023-12-22T10:03:36;8.50;99.90
47336;DHT22;33068;51.990;5.926;2023-12-22T10:06:07;8.50;99.90
47336;DHT22;33068;51.990;5.926;2023-12-22T10:08:37;8.50;99.90
47336;DHT22;33068;51.990;5.926;2023-12-22T10:11:08;8.40;99.90
47336;DHT22;33068;51.990;5.926;2023-12-22T10:13:38;8.40;99.90
47336;DHT22;33068;51.990;5.926;2023-12-22T10:16:08;8.30;99.90
47336;DHT22;33068;51.990;5.926;2023-12-22T10:18:35;8.30;99.90
47336;DHT22;33068;51.990;5.926;2023-12-22T10:21:07;8.30;99.90
47336;DHT22;33068;51.990;5.926;2023-12-22T10:23:35;8.20;99.90
47336;DHT22;33068;51.990;5.926;2023-12-22T10:26:04;8.30;99.90
47336;DHT22;33068;51.990;5.926;2023-12-22T10:28:31;8.30;99.90
47336;DHT22;33068;51.990;5.926;2023-12-22T10:31:00;8.30;99.90
47336;DHT22;33068;51.990;5.926;2023-12-22T10:33:32;8.30;99.90
47336;DHT22;33068;51.990;5.926;2023-12-22T10:35:59;8.40;99.90
47336;DHT22;33068;51.990;5.926;2023-12-22T10:38:32;8.50;99.90
47336;DHT22;33068;51.990;5.926;2023-12-22T10:40:59;8.50;99.90
47336;DHT22;33068;51.990;5.926;2023-12-22T10:43:26;8.70;99.90
47336;DHT22;33068;51.990;5.926;2023-12-22T10:45:53;8.90;99.90
47336;DHT22;33068;51.990;5.926;2023-12-22T10:48:22;8.90;99.90
47336;DHT22;33068;51.990;5.926;2023-12-22T10:50:49;8.80;99.90
47336;DHT22;33068;51.990;5.926;2023-12-22T10:53:16;9.00;99.90
47336;DHT22;33068;51.990;5.926;2023-12-22T10:55:46;9.00;99.90
47336;DHT22;33068;51.990;5.926;2023-12-22T10:58:16;9.00;99.90
47336;DHT22;33068;51.990;5.926;2023-12-22T11:00:45;8.90;99.90
47336;DHT22;33068;51.990;5.926;2023-12-22T11:03:16;8.90;99.90
47336;DHT22;33068;51.990;5.926;2023-12-22T11:05:46;8.90;99.90
47336;DHT22;33068;51.990;5.926;2023-12-22T11:08:14;9.00;99.90
47336;DHT22;33068;51.990;5.926;2023-12-22T11:10:42;9.00;99.90
47336;DHT22;33068;51.990;5.926;2023-12-22T11:13:14;8.90;99.90
47336;DHT22;33068;51.990;5.926;2023-12-22T11:15:46;9.00;99.90
47336;DHT22;33068;51.990;5.926;2023-12-22T11:18:14;9.00;99.90
47336;DHT22;33068;51.990;5.926;2023-12-22T11:20:42;8.90;99.90
47336;DHT22;33068;51.990;5.926;2023-12-22T11:23:12;9.00;99.90
47336;DHT22;33068;51.990;5.926;2023-12-22T11:25:41;9.00;99.90
47336;DHT22;33068;51.990;5.926;2023-12-22T11:28:10;9.10;99.90
47336;DHT22;33068;51.990;5.926;2023-12-22T11:30:38;9.10;99.90
47336;DHT22;33068;51.990;5.926;2023-12-22T11:33:06;9.10;99.90
47336;DHT22;33068;51.990;5.926;2023-12-22T11:35:34;9.10;99.90
47336;DHT22;33068;51.990;5.926;2023-12-22T11:38:01;9.20;99.90
47336;DHT22;33068;51.990;5.926;2023-12-22T11:40:31;9.30;99.90
47336;DHT22;33068;51.990;5.926;2023-12-22T11:42:58;9.30;99.90
47336;DHT22;33068;51.990;5.926;2023-12-22T11:45:30;9.40;99.90
47336;DHT22;33068;51.990;5.926;2023-12-22T11:48:10;9.40;99.90
47336;DHT22;33068;51.990;5.926;2023-12-22T11:53:40;9.50;99.90
47336;DHT22;33068;51.990;5.926;2023-12-22T11:56:12;9.50;99.90
47336;DHT22;33068;51.990;5.926;2023-12-22T11:58:40;9.50;99.90
47336;DHT22;33068;51.990;5.926;2023-12-22T12:01:09;9.50;99.90
47336;DHT22;33068;51.990;5.926;2023-12-22T12:03:40;9.50;99.90
47336;DHT22;33068;51.990;5.926;2023-12-22T12:06:22;9.40;99.90
47336;DHT22;33068;51.990;5.926;2023-12-22T12:08:57;9.40;99.90
47336;DHT22;33068;51.990;5.926;2023-12-22T12:12:11;9.50;99.90
47336;DHT22;33068;51.990;5.926;2023-12-22T12:14:41;9.40;99.90
47336;DHT22;33068;51.990;5.926;2023-12-22T12:17:09;9.50;99.90
47336;DHT22;33068;51.990;5.926;2023-12-22T12:19:38;9.40;99.90
47336;DHT22;33068;51.990;5.926;2023-12-22T12:22:07;9.40;99.90
47336;DHT22;33068;51.990;5.926;2023-12-22T12:24:36;9.40;99.90
47336;DHT22;33068;51.990;5.926;2023-12-22T12:27:05;9.40;99.90
47336;DHT22;33068;51.990;5.926;2023-12-22T12:29:33;9.40;99.90
47336;DHT22;33068;51.990;5.926;2023-12-22T12:32:03;9.50;99.90
47336;DHT22;33068;51.990;5.926;2023-12-22T12:34:31;9.50;99.90
47336;DHT22;33068;51.990;5.926;2023-12-22T12:36:58;9.50;99.90
47336;DHT22;33068;51.990;5.926;2023-12-22T12:39:30;9.40;99.90
47336;DHT22;33068;51.990;5.926;2023-12-22T12:41:59;9.50;99.90
47336;DHT22;33068;51.990;5.926;2023-12-22T12:44:29;9.50;99.90
47336;DHT22;33068;51.990;5.926;2023-12-22T12:46:58;9.40;99.90
47336;DHT22;33068;51.990;5.926;2023-12-22T12:49:25;9.40;99.90
47336;DHT22;33068;51.990;5.926;2023-12-22T12:51:56;9.50;99.90
47336;DHT22;33068;51.990;5.926;2023-12-22T12:54:23;9.50;99.90
47336;DHT22;33068;51.990;5.926;2023-12-22T12:56:50;9.60;99.90
47336;DHT22;33068;51.990;5.926;2023-12-22T12:59:18;9.70;99.90
47336;DHT22;33068;51.990;5.926;2023-12-22T13:01:47;9.70;99.90
47336;DHT22;33068;51.990;5.926;2023-12-22T13:04:15;9.70;99.90
47336;DHT22;33068;51.990;5.926;2023-12-22T13:06:47;9.70;99.90
47336;DHT22;33068;51.990;5.926;2023-12-22T13:09:17;9.60;99.90
47336;DHT22;33068;51.990;5.926;2023-12-22T13:11:45;9.60;99.90
47336;DHT22;33068;51.990;5.926;2023-12-22T13:14:21;9.50;99.90
47336;DHT22;33068;51.990;5.926;2023-12-22T13:16:52;9.70;99.90
47336;DHT22;33068;51.990;5.926;2023-12-22T13:19:21;9.80;99.90
47336;DHT22;33068;51.990;5.926;2023-12-22T13:21:49;9.80;99.90
47336;DHT22;33068;51.990;5.926;2023-12-22T13:24:17;9.90;99.90
47336;DHT22;33068;51.990;5.926;2023-12-22T13:26:44;10.00;99.90
47336;DHT22;33068;51.990;5.926;2023-12-22T13:29:12;10.00;99.90
47336;DHT22;33068;51.990;5.926;2023-12-22T13:31:41;10.00;99.90
47336;DHT22;33068;51.990;5.926;2023-12-22T13:34:11;9.90;99.90
47336;DHT22;33068;51.990;5.926;2023-12-22T13:36:38;9.90;99.90
47336;DHT22;33068;51.990;5.926;2023-12-22T13:39:06;9.90;99.90
47336;DHT22;33068;51.990;5.926;2023-12-22T13:41:33;9.90;99.90
47336;DHT22;33068;51.990;5.926;2023-12-22T13:44:03;9.90;99.90
47336;DHT22;33068;51.990;5.926;2023-12-22T13:46:31;9.90;99.90
47336;DHT22;33068;51.990;5.926;2023-12-22T13:48:58;9.80;99.90
47336;DHT22;33068;51.990;5.926;2023-12-22T13:51:38;9.90;99.90
47336;DHT22;33068;51.990;5.926;2023-12-22T13:54:05;9.90;99.90
47336;DHT22;33068;51.990;5.926;2023-12-22T13:56:33;9.90;99.90
47336;DHT22;33068;51.990;5.926;2023-12-22T13:59:02;9.90;99.90
47336;DHT22;33068;51.990;5.926;2023-12-22T14:01:30;9.80;99.90
47336;DHT22;33068;51.990;5.926;2023-12-22T14:03:58;9.80;99.90
47336;DHT22;33068;51.990;5.926;2023-12-22T14:06:27;9.70;99.90
47336;DHT22;33068;51.990;5.926;2023-12-22T14:08:54;9.70;99.90
47336;DHT22;33068;51.990;5.926;2023-12-22T14:11:22;9.60;99.90
47336;DHT22;33068;51.990;5.926;2023-12-22T14:13:49;9.60;99.90
47336;DHT22;33068;51.990;5.926;2023-12-22T14:16:16;9.70;99.90
47336;DHT22;33068;51.990;5.926;2023-12-22T14:18:43;9.70;99.90
47336;DHT22;33068;51.990;5.926;2023-12-22T14:21:11;9.60;99.90
47336;DHT22;33068;51.990;5.926;2023-12-22T14:23:40;9.60;99.90
47336;DHT22;33068;51.990;5.926;2023-12-22T14:26:07;9.70;99.90
47336;DHT22;33068;51.990;5.926;2023-12-22T14:28:35;9.60;99.90
47336;DHT22;33068;51.990;5.926;2023-12-22T14:31:02;9.60;99.90
47336;DHT22;33068;51.990;5.926;2023-12-22T14:33:29;9.60;99.90
47336;DHT22;33068;51.990;5.926;2023-12-22T14:35:56;9.50;99.90
47336;DHT22;33068;51.990;5.926;2023-12-22T14:38:23;9.50;99.90
47336;DHT22;33068;51.990;5.926;2023-12-22T14:40:52;9.50;99.90
47336;DHT22;33068;51.990;5.926;2023-12-22T14:43:19;9.40;99.90
47336;DHT22;33068;51.990;5.926;2023-12-22T14:45:46;9.40;99.90
47336;DHT22;33068;51.990;5.926;2023-12-22T14:48:13;9.30;99.90
47336;DHT22;33068;51.990;5.926;2023-12-22T14:50:40;9.40;99.90
47336;DHT22;33068;51.990;5.926;2023-12-22T14:53:07;9.50;99.90
47336;DHT22;33068;51.990;5.926;2023-12-22T14:55:35;9.50;99.90
47336;DHT22;33068;51.990;5.926;2023-12-22T14:58:03;9.50;99.90
47336;DHT22;33068;51.990;5.926;2023-12-22T15:00:32;9.60;99.90
47336;DHT22;33068;51.990;5.926;2023-12-22T15:03:00;9.60;99.90
47336;DHT22;33068;51.990;5.926;2023-12-22T15:05:27;9.50;99.90
47336;DHT22;33068;51.990;5.926;2023-12-22T15:07:55;9.60;99.90
47336;DHT22;33068;51.990;5.926;2023-12-22T15:10:22;9.60;99.90
47336;DHT22;33068;51.990;5.926;2023-12-22T15:12:49;9.60;99.90
47336;DHT22;33068;51.990;5.926;2023-12-22T15:15:18;9.60;99.90
47336;DHT22;33068;51.990;5.926;2023-12-22T15:17:45;9.60;99.90
47336;DHT22;33068;51.990;5.926;2023-12-22T15:20:14;9.60;99.90
47336;DHT22;33068;51.990;5.926;2023-12-22T15:22:41;9.60;99.90
47336;DHT22;33068;51.990;5.926;2023-12-22T15:25:09;9.60;99.90
47336;DHT22;33068;51.990;5.926;2023-12-22T15:27:36;9.60;99.90
47336;DHT22;33068;51.990;5.926;2023-12-22T15:30:06;9.60;99.90
47336;DHT22;33068;51.990;5.926;2023-12-22T15:32:35;9.60;99.90
47336;DHT22;33068;51.990;5.926;2023-12-22T15:35:02;9.60;99.90
47336;DHT22;33068;51.990;5.926;2023-12-22T15:37:29;9.60;99.90
47336;DHT22;33068;51.990;5.926;2023-12-22T15:39:56;9.60;99.90
47336;DHT22;33068;51.990;5.926;2023-12-22T15:42:24;9.60;99.90
47336;DHT22;33068;51.990;5.926;2023-12-22T15:44:51;9.60;99.90
47336;DHT22;33068;51.990;5.926;2023-12-22T15:47:18;9.60;99.90
47336;DHT22;33068;51.990;5.926;2023-12-22T15:49:49;9.60;99.90
47336;DHT22;33068;51.990;5.926;2023-12-22T15:52:28;9.60;99.90
47336;DHT22;33068;51.990;5.926;2023-12-22T15:54:57;9.60;99.90